Time;durP1;ratioP1;P1;durP2;ratioP2;P2;SDS_P1;SDS_P2;PMS_P1;PMS_P2;Temp;Humidity;BMP_temperature;BMP_pressure;BME280_temperature;BME280_humidity;BME280_pressure;Samples;Min_cycle;Max_cycle;Signal;HPM_P1;HPM_P2
2022/04/12 00:02:29;;;;;;;115.30;58.97;;;3.90;99.90;;;;;;10370207;28;20053;-80
2022/04/12 00:07:30;;;;;;;118.13;57.67;;;3.80;99.90;;;;;;10371000;28;20076;-80
2022/04/12 00:12:30;;;;;;;126.23;66.13;;;3.80;99.90;;;;;;10370901;28;20441;-80
2022/04/12 00:23:14;;;;;;;118.60;59.53;;;3.70;99.90;;;;;;10243460;29;20154;-80
2022/04/12 00:28:15;;;;;;;133.70;69.07;;;3.70;99.90;;;;;;10311524;28;20501;-81
2022/04/12 00:33:16;;;;;;;118.30;58.70;;;3.60;99.90;;;;;;10368737;28;20037;-80
2022/04/12 00:38:22;;;;;;;108.37;52.47;;;3.50;99.90;;;;;;10369477;28;20049;-80
2022/04/12 00:43:27;;;;;;;104.25;49.67;;;3.50;99.90;;;;;;10369533;28;20694;-80
2022/04/12 00:48:32;;;;;;;73.40;38.40;;;3.50;99.90;;;;;;10363054;28;20088;-80
2022/04/12 00:53:33;;;;;;;106.00;51.30;;;3.40;99.90;;;;;;10361583;28;20042;-80
2022/04/12 00:58:33;;;;;;;104.97;53.50;;;3.40;99.90;;;;;;10369354;28;20029;-80
2022/04/12 01:03:34;;;;;;;105.80;50.67;;;3.40;99.90;;;;;;10368408;28;20037;-80
2022/04/12 01:08:35;;;;;;;101.20;48.97;;;3.30;99.90;;;;;;10368393;28;20444;-80
2022/04/12 01:13:36;;;;;;;104.80;50.70;;;3.20;99.90;;;;;;10369191;28;20478;-80
2022/04/12 01:18:37;;;;;;;103.33;48.53;;;3.20;99.90;;;;;;10366830;28;20022;-81
2022/04/12 01:24:01;;;;;;;107.00;50.13;;;3.20;99.90;;;;;;10367792;28;20514;-80
2022/04/12 01:29:01;;;;;;;123.57;51.70;;;3.00;99.90;;;;;;10367256;28;20136;-80
2022/04/12 01:34:02;;;;;;;104.23;47.93;;;2.90;99.90;;;;;;10367346;28;20109;-79
2022/04/12 01:39:03;;;;;;;117.07;50.43;;;2.90;99.90;;;;;;10368042;28;20520;-79
2022/04/12 01:44:04;;;;;;;116.70;52.73;;;2.90;99.90;;;;;;10366884;28;20084;-80
2022/04/12 01:49:04;;;;;;;119.10;53.73;;;2.80;99.90;;;;;;10367852;28;20683;-80
2022/04/12 01:54:05;;;;;;;107.07;51.73;;;2.90;99.90;;;;;;10367323;28;20030;-80
2022/04/12 01:59:06;;;;;;;94.60;45.80;;;2.80;99.90;;;;;;10366989;28;20036;-80
2022/04/12 02:04:06;;;;;;;104.07;49.40;;;2.80;99.90;;;;;;10357145;28;20045;-80
2022/04/12 02:09:07;;;;;;;100.23;47.93;;;2.80;99.90;;;;;;10357536;28;20375;-80
2022/04/12 02:14:08;;;;;;;100.33;47.50;;;2.80;99.90;;;;;;10357275;28;20032;-80
2022/04/12 02:19:08;;;;;;;111.67;51.17;;;2.80;99.90;;;;;;10347851;28;20038;-80
2022/04/12 02:24:09;;;;;;;99.20;45.70;;;2.70;99.90;;;;;;10334530;28;20050;-80
2022/04/12 02:29:12;;;;;;;110.20;51.73;;;2.80;99.90;;;;;;10342093;28;20366;-80
2022/04/12 02:34:12;;;;;;;113.90;51.33;;;2.80;99.90;;;;;;10355374;28;20069;-80
2022/04/12 02:39:13;;;;;;;107.87;50.33;;;2.90;99.90;;;;;;10371271;28;20533;-80
2022/04/12 02:44:13;;;;;;;145.33;63.93;;;2.90;99.90;;;;;;10374353;28;20041;-80
2022/04/12 02:49:14;;;;;;;137.90;62.37;;;3.00;99.90;;;;;;10373986;28;20049;-80
2022/04/12 02:54:15;;;;;;;135.50;63.10;;;3.10;99.90;;;;;;10373043;28;20486;-80
2022/04/12 02:59:15;;;;;;;146.97;69.97;;;3.10;99.90;;;;;;10374077;28;20088;-80
2022/04/12 03:04:16;;;;;;;155.00;74.17;;;3.20;99.90;;;;;;10383918;28;20064;-78
2022/04/12 03:09:18;;;;;;;100.37;50.93;;;3.20;99.90;;;;;;10372783;28;20113;-77
2022/04/12 03:14:18;;;;;;;109.40;53.70;;;3.20;99.90;;;;;;10373203;28;20025;-78
2022/04/12 03:19:19;;;;;;;104.97;50.07;;;3.20;99.90;;;;;;10370343;28;20037;-78
2022/04/12 03:24:22;;;;;;;103.63;51.33;;;3.30;99.90;;;;;;10372239;28;20065;-78
2022/04/12 03:29:23;;;;;;;104.80;51.37;;;3.30;99.90;;;;;;10372931;28;20022;-78
2022/04/12 03:34:23;;;;;;;107.47;51.77;;;3.30;99.90;;;;;;10372465;28;20034;-77
2022/04/12 03:39:25;;;;;;;109.30;52.23;;;3.30;99.90;;;;;;10371815;28;20044;-78
2022/04/12 03:44:26;;;;;;;113.07;54.57;;;3.20;99.90;;;;;;10372317;28;20494;-78
2022/04/12 03:49:26;;;;;;;113.47;52.03;;;3.20;99.90;;;;;;10371435;28;20050;-78
2022/04/12 03:54:27;;;;;;;105.33;50.33;;;3.10;99.90;;;;;;10371759;28;20041;-77
2022/04/12 03:59:28;;;;;;;106.40;51.20;;;3.10;99.90;;;;;;10371235;28;20398;-78
2022/04/12 04:04:28;;;;;;;112.70;55.30;;;3.00;99.90;;;;;;10371530;28;20046;-78
2022/04/12 04:09:29;;;;;;;120.70;58.20;;;2.80;99.90;;;;;;10386393;28;20037;-77
2022/04/12 04:14:31;;;;;;;103.97;49.97;;;2.80;99.90;;;;;;10361297;28;20037;-78
2022/04/12 04:19:32;;;;;;;108.93;50.70;;;2.70;99.90;;;;;;10370519;28;20030;-78
2022/04/12 04:24:32;;;;;;;99.73;51.27;;;2.70;99.90;;;;;;10353166;28;20076;-81
2022/04/12 04:29:35;;;;;;;106.10;51.67;;;2.70;99.90;;;;;;10362013;28;20037;-82
2022/04/12 04:34:35;;;;;;;114.77;54.77;;;2.60;99.90;;;;;;10346157;28;20517;-80
2022/04/12 04:39:36;;;;;;;104.50;50.10;;;2.70;99.90;;;;;;10347662;28;20039;-80
2022/04/12 04:44:37;;;;;;;93.87;47.20;;;2.70;99.90;;;;;;10357193;28;20045;-80
2022/04/12 04:49:37;;;;;;;104.43;50.63;;;2.70;99.90;;;;;;10357493;28;20029;-80
2022/04/12 04:54:39;;;;;;;102.57;50.30;;;2.70;99.90;;;;;;10360479;28;20030;-81
2022/04/12 04:59:39;;;;;;;97.10;50.17;;;2.80;99.90;;;;;;10358006;28;20026;-80
2022/04/12 05:04:40;;;;;;;96.37;51.70;;;2.90;99.90;;;;;;10352058;28;20033;-81
2022/04/12 05:09:41;;;;;;;136.80;69.73;;;3.10;99.90;;;;;;10366573;28;20041;-82
2022/04/12 05:14:42;;;;;;;127.83;67.37;;;3.20;99.90;;;;;;10357980;28;20032;-80
2022/04/12 05:19:42;;;;;;;124.03;63.43;;;3.40;99.90;;;;;;10357475;28;20438;-80
2022/04/12 05:24:43;;;;;;;131.80;73.23;;;3.60;99.90;;;;;;10366531;28;20058;-80
2022/04/12 05:29:45;;;;;;;121.67;67.73;;;3.80;99.90;;;;;;10366081;28;20029;-81
2022/04/12 05:34:46;;;;;;;100.70;58.20;;;4.00;99.90;;;;;;10365704;28;20034;-83
2022/04/12 05:39:47;;;;;;;118.43;62.30;;;4.10;99.90;;;;;;10365718;28;20042;-81
2022/04/12 05:44:48;;;;;;;115.57;59.47;;;4.20;99.90;;;;;;10367183;28;20034;-82
2022/04/12 05:49:48;;;;;;;109.23;55.47;;;4.20;99.90;;;;;;10366953;28;20112;-81
2022/04/12 05:54:49;;;;;;;114.13;58.70;;;4.30;99.90;;;;;;10367650;28;20213;-81
2022/04/12 05:59:49;;;;;;;100.57;54.63;;;4.50;99.90;;;;;;10367182;28;20040;-81
2022/04/12 06:04:50;;;;;;;123.00;73.00;;;4.60;99.90;;;;;;10367424;28;20041;-81
2022/04/12 06:09:50;;;;;;;96.37;59.07;;;4.80;99.90;;;;;;10367726;28;20369;-81
2022/04/12 06:14:51;;;;;;;99.30;55.60;;;5.00;99.90;;;;;;10365540;28;20036;-81
2022/04/12 06:19:52;;;;;;;95.87;51.00;;;5.10;99.90;;;;;;10367256;28;20030;-81
2022/04/12 06:24:52;;;;;;;92.17;50.83;;;5.30;99.90;;;;;;10366508;28;20058;-81
2022/04/12 06:29:53;;;;;;;95.30;47.90;;;5.40;99.90;;;;;;10363712;28;20164;-82
2022/04/12 06:34:54;;;;;;;91.67;46.40;;;5.60;99.90;;;;;;10364494;28;20037;-81
2022/04/12 06:39:57;;;;;;;79.63;43.77;;;5.80;99.90;;;;;;10351460;28;20038;-80
2022/04/12 06:44:57;;;;;;;76.77;42.97;;;6.10;99.90;;;;;;10324132;28;20049;-79
2022/04/12 06:49:58;;;;;;;78.03;41.07;;;6.30;99.90;;;;;;10345419;28;20030;-80
2022/04/12 06:55:00;;;;;;;74.80;40.57;;;6.60;99.90;;;;;;10362931;28;20066;-80
2022/04/12 07:00:02;;;;;;;68.77;37.60;;;6.90;99.90;;;;;;10332704;28;20378;-79
2022/04/12 07:05:05;;;;;;;43.07;25.73;;;7.20;99.90;;;;;;10371061;28;20038;-81
2022/04/12 07:10:11;;;;;;;45.20;24.97;;;7.50;94.20;;;;;;10370768;28;20574;-80
2022/04/12 07:15:14;;;;;;;41.92;20.63;;;7.70;91.60;;;;;;10371060;28;20532;-80
2022/04/12 07:20:15;;;;;;;42.07;24.43;;;7.90;89.10;;;;;;10369882;28;20113;-80
2022/04/12 07:25:17;;;;;;;49.73;27.07;;;8.20;90.00;;;;;;10315493;28;1617051;-80
2022/04/12 07:30:18;;;;;;;46.17;24.37;;;8.30;91.20;;;;;;10371850;28;20029;-80
2022/04/12 07:35:18;;;;;;;33.60;18.00;;;8.70;91.40;;;;;;10372403;28;20033;-81
2022/04/12 07:40:19;;;;;;;25.50;15.23;;;9.20;90.00;;;;;;10404641;28;20079;-80
2022/04/12 07:45:19;;;;;;;30.10;15.43;;;9.40;85.60;;;;;;10377776;28;20030;-80
2022/04/12 07:50:21;;;;;;;32.33;16.33;;;9.50;85.50;;;;;;10364735;28;20084;-80
2022/04/12 07:55:22;;;;;;;25.03;13.50;;;9.70;84.40;;;;;;10366639;28;20423;-80
2022/04/12 08:00:23;;;;;;;19.47;10.70;;;10.00;85.40;;;;;;10370532;28;20042;-80
2022/04/12 08:05:23;;;;;;;17.73;10.85;;;10.30;80.10;;;;;;10370022;28;20121;-81
2022/04/12 08:10:24;;;;;;;19.98;12.02;;;10.50;77.10;;;;;;10357350;28;20033;-79
2022/04/12 08:15:26;;;;;;;24.70;12.07;;;10.70;79.60;;;;;;10368561;28;20026;-80
2022/04/12 08:20:27;;;;;;;20.38;11.50;;;11.00;79.70;;;;;;10340057;28;20422;-80
2022/04/12 08:25:28;;;;;;;19.60;10.90;;;11.20;77.40;;;;;;10330403;28;20078;-80
2022/04/12 08:30:29;;;;;;;24.05;12.07;;;11.50;77.20;;;;;;10333715;28;20065;-82
2022/04/12 08:35:30;;;;;;;22.60;12.48;;;11.70;72.80;;;;;;10369318;28;20057;-80
2022/04/12 08:40:31;;;;;;;22.48;11.85;;;11.90;75.50;;;;;;10369739;28;20088;-82
2022/04/12 08:45:34;;;;;;;26.33;14.45;;;12.20;74.20;;;;;;10369359;28;20034;-80
2022/04/12 08:50:35;;;;;;;23.60;13.48;;;12.30;75.20;;;;;;10369415;28;20037;-79
2022/04/12 08:55:36;;;;;;;21.40;12.27;;;12.20;74.50;;;;;;10369640;28;20033;-81
2022/04/12 09:00:37;;;;;;;25.27;13.77;;;12.20;74.80;;;;;;10369651;28;20030;-81
2022/04/12 09:05:40;;;;;;;22.30;12.20;;;11.90;73.80;;;;;;10368941;28;20045;-82
2022/04/12 09:10:40;;;;;;;24.25;13.85;;;12.40;76.30;;;;;;10368778;28;20393;-81
2022/04/12 09:15:43;;;;;;;22.13;11.73;;;12.70;74.90;;;;;;10368495;28;20022;-80
2022/04/12 09:20:43;;;;;;;18.88;11.50;;;13.10;72.00;;;;;;10368420;28;20033;-81
2022/04/12 09:25:54;;;;;;;22.05;12.18;;;13.20;70.70;;;;;;10368479;28;20050;-80
2022/04/12 09:30:55;;;;;;;24.92;14.65;;;13.80;70.90;;;;;;10368328;28;20371;-80
2022/04/12 09:35:56;;;;;;;16.10;9.38;;;14.40;71.30;;;;;;10367411;28;20161;-82
2022/04/12 09:41:15;;;;;;;14.45;8.65;;;14.60;67.50;;;;;;10368045;28;20518;-83
2022/04/12 09:46:16;;;;;;;12.05;7.15;;;13.80;66.30;;;;;;10367817;28;20394;-80
2022/04/12 09:51:19;;;;;;;13.55;8.18;;;13.30;66.10;;;;;;10366872;28;20041;-80
2022/04/12 09:56:25;;;;;;;16.02;8.25;;;13.00;66.40;;;;;;10367685;28;20108;-81
2022/04/12 10:01:27;;;;;;;19.83;9.40;;;12.80;67.80;;;;;;10367250;28;20029;-81
2022/04/12 10:06:28;;;;;;;16.48;8.43;;;12.40;70.00;;;;;;10366536;28;20038;-80
2022/04/12 10:11:29;;;;;;;15.65;9.05;;;12.40;71.60;;;;;;10353626;28;20038;-80
2022/04/12 10:16:29;;;;;;;16.80;9.25;;;13.30;69.40;;;;;;10364280;28;20118;-80
2022/04/12 10:21:30;;;;;;;15.52;8.32;;;13.80;65.90;;;;;;10336511;28;20031;-82
2022/04/12 10:26:32;;;;;;;12.90;7.63;;;14.10;66.50;;;;;;10368110;28;20131;-81
2022/04/12 10:31:33;;;;;;;16.13;8.82;;;14.70;63.10;;;;;;10374293;28;20034;-79
2022/04/12 10:36:58;;;;;;;13.52;7.82;;;14.60;64.40;;;;;;10374758;28;20473;-80
2022/04/12 10:42:13;;;;;;;12.88;8.27;;;15.10;63.60;;;;;;10374457;28;20128;-80
2022/04/12 10:47:31;;;;;;;14.02;8.25;;;14.80;61.70;;;;;;10373924;28;20414;-81
2022/04/12 10:52:41;;;;;;;14.05;8.43;;;15.10;64.30;;;;;;10373816;28;20160;-81
2022/04/12 10:57:42;;;;;;;13.55;8.75;;;15.10;62.50;;;;;;10373615;28;20428;-81
2022/04/12 11:02:45;;;;;;;13.15;9.00;;;14.80;64.40;;;;;;10373649;28;20048;-80
2022/04/12 11:07:46;;;;;;;16.10;9.07;;;15.10;65.20;;;;;;10373646;28;20038;-80
2022/04/12 11:12:48;;;;;;;19.40;8.32;;;15.80;65.20;;;;;;10373607;28;20056;-82
2022/04/12 11:17:49;;;;;;;13.25;7.95;;;16.30;65.50;;;;;;10373729;28;20025;-81
2022/04/12 11:22:57;;;;;;;14.23;8.70;;;16.10;62.40;;;;;;10354118;28;20132;-79
2022/04/12 11:27:59;;;;;;;14.40;9.25;;;15.90;62.70;;;;;;10372681;28;20410;-82
2022/04/12 11:33:00;;;;;;;15.70;9.90;;;15.70;60.80;;;;;;10371806;28;20034;-80
2022/04/12 11:38:04;;;;;;;17.13;9.48;;;15.30;58.20;;;;;;10370714;28;20075;-80
2022/04/12 11:43:19;;;;;;;17.85;8.88;;;15.10;59.90;;;;;;10372233;28;20041;-80
2022/04/12 11:48:21;;;;;;;15.55;9.43;;;15.10;62.10;;;;;;10371604;28;20121;-79
2022/04/12 11:53:24;;;;;;;13.88;8.48;;;15.40;63.00;;;;;;10371327;28;20026;-79
2022/04/12 11:58:28;;;;;;;20.90;8.85;;;15.80;62.00;;;;;;10371711;28;20032;-80
2022/04/12 12:03:30;;;;;;;15.95;8.00;;;15.80;60.60;;;;;;10370920;28;20478;-79
2022/04/12 12:08:32;;;;;;;13.43;8.23;;;15.50;59.00;;;;;;10371510;28;20484;-81
2022/04/12 12:13:33;;;;;;;12.75;8.02;;;15.40;59.10;;;;;;10370773;28;20576;-80
2022/04/12 12:18:39;;;;;;;11.68;7.20;;;15.60;61.90;;;;;;10370914;28;20025;-82
2022/04/12 12:23:40;;;;;;;14.40;8.30;;;15.90;60.20;;;;;;10369522;28;20041;-80
2022/04/12 12:28:41;;;;;;;14.52;9.25;;;15.90;59.80;;;;;;10374369;28;20048;-80
2022/04/12 12:33:44;;;;;;;17.92;8.75;;;15.60;57.50;;;;;;10370198;28;20655;-81
2022/04/12 12:38:45;;;;;;;14.73;8.82;;;15.20;57.80;;;;;;10369862;28;20121;-80
2022/04/12 12:43:53;;;;;;;16.58;8.52;;;15.20;57.90;;;;;;10370459;28;20715;-79
2022/04/12 12:49:09;;;;;;;15.88;8.90;;;14.60;55.80;;;;;;10339703;28;20061;-79
2022/04/12 12:54:14;;;;;;;12.88;7.18;;;14.60;58.60;;;;;;10370018;28;20033;-80
2022/04/12 12:59:27;;;;;;;12.83;6.90;;;15.00;61.50;;;;;;10369244;28;20030;-80
2022/04/12 13:04:31;;;;;;;11.10;6.22;;;15.20;60.00;;;;;;10368632;28;20320;-81
2022/04/12 13:09:38;;;;;;;14.75;7.28;;;15.10;58.10;;;;;;10367900;28;20062;-81
2022/04/12 13:14:39;;;;;;;14.30;7.95;;;14.80;57.80;;;;;;10368470;28;20520;-79
2022/04/12 13:19:41;;;;;;;16.33;7.03;;;14.80;58.10;;;;;;10369026;28;20102;-80
2022/04/12 13:24:41;;;;;;;12.27;7.65;;;14.70;57.80;;;;;;10369074;28;20553;-80
2022/04/12 13:29:42;;;;;;;13.80;7.32;;;14.60;59.60;;;;;;10367769;28;20113;-82
2022/04/12 13:34:43;;;;;;;12.75;7.60;;;15.00;60.80;;;;;;10349972;28;20022;-81
2022/04/12 13:39:43;;;;;;;12.27;6.50;;;15.30;58.60;;;;;;10368610;28;20351;-80
2022/04/12 13:44:46;;;;;;;11.45;7.65;;;15.10;61.10;;;;;;10366641;28;20046;-81
2022/04/12 13:49:46;;;;;;;12.00;6.72;;;15.40;58.70;;;;;;10368217;28;20121;-80
2022/04/12 13:54:48;;;;;;;11.15;7.10;;;15.20;57.90;;;;;;10356286;28;20140;-80
2022/04/12 13:59:49;;;;;;;15.77;9.20;;;15.10;60.90;;;;;;10327544;28;20134;-80
2022/04/12 14:04:49;;;;;;;12.13;7.38;;;15.10;60.40;;;;;;10346757;28;20536;-79
2022/04/12 14:09:50;;;;;;;13.27;7.47;;;15.10;59.40;;;;;;10350947;28;20105;-82
2022/04/12 14:14:51;;;;;;;11.85;6.72;;;14.60;56.70;;;;;;10327183;28;20030;-83
2022/04/12 14:19:51;;;;;;;12.85;6.80;;;14.30;58.50;;;;;;10326669;28;20029;-81
2022/04/12 14:24:52;;;;;;;12.23;7.75;;;14.20;58.90;;;;;;10358128;28;20057;-81
2022/04/12 14:29:52;;;;;;;22.10;17.45;;;14.10;58.70;;;;;;10367289;28;20030;-81
2022/04/12 14:34:53;;;;;;;18.08;10.32;;;14.00;57.90;;;;;;10366257;28;20033;-80
2022/04/12 14:39:53;;;;;;;9.20;6.07;;;14.00;60.70;;;;;;10365543;28;20061;-85
2022/04/12 14:44:54;;;;;;;15.10;10.77;;;14.10;59.20;;;;;;10364891;28;20052;-84
2022/04/12 14:49:55;;;;;;;15.82;10.25;;;14.00;59.20;;;;;;10367198;28;20045;-81
2022/04/12 14:54:55;;;;;;;10.43;6.55;;;13.90;58.40;;;;;;10366342;28;20164;-80
2022/04/12 14:59:57;;;;;;;13.52;6.47;;;14.00;58.70;;;;;;10366191;28;20030;-81
2022/04/12 15:04:58;;;;;;;10.85;6.28;;;13.80;59.10;;;;;;10366381;28;20046;-83
2022/04/12 15:09:59;;;;;;;12.80;8.23;;;13.90;58.60;;;;;;10366086;28;20486;-80
2022/04/12 15:15:00;;;;;;;12.18;6.38;;;13.90;60.00;;;;;;10370082;28;20042;-83
2022/04/12 15:20:01;;;;;;;10.73;5.55;;;13.90;59.30;;;;;;10370098;28;20030;-82
2022/04/12 15:25:01;;;;;;;9.43;5.47;;;13.90;59.50;;;;;;10370630;28;20441;-83
2022/04/12 15:30:03;;;;;;;10.32;6.28;;;13.80;59.80;;;;;;10370993;28;20030;-79
2022/04/12 15:35:09;;;;;;;10.18;6.00;;;13.70;59.40;;;;;;10371818;28;20124;-80
2022/04/12 15:40:11;;;;;;;10.20;5.57;;;13.70;60.90;;;;;;10371959;28;20041;-79
2022/04/12 15:45:12;;;;;;;11.05;5.10;;;13.70;61.00;;;;;;10367711;28;20108;-79
2022/04/12 15:50:12;;;;;;;12.45;5.90;;;13.70;59.70;;;;;;10367137;28;20076;-79
2022/04/12 15:55:15;;;;;;;14.98;7.10;;;13.50;60.40;;;;;;10371750;28;20029;-80
2022/04/12 16:00:16;;;;;;;10.98;5.68;;;13.40;60.30;;;;;;10371071;28;20068;-79
2022/04/12 16:05:17;;;;;;;8.85;5.35;;;13.30;59.80;;;;;;10371182;28;20153;-80
2022/04/12 16:10:17;;;;;;;14.48;8.57;;;13.20;61.00;;;;;;10364726;28;20637;-83
2022/04/12 16:15:18;;;;;;;12.38;7.50;;;13.00;61.20;;;;;;10373228;28;20037;-79
2022/04/12 16:20:19;;;;;;;12.48;6.68;;;12.80;61.00;;;;;;10370289;28;20047;-79
2022/04/12 16:25:19;;;;;;;15.40;7.55;;;12.70;62.00;;;;;;10369346;28;20049;-80
2022/04/12 16:30:22;;;;;;;13.07;6.63;;;12.60;62.60;;;;;;10370284;28;20421;-82
2022/04/12 16:35:23;;;;;;;15.13;7.50;;;12.40;62.20;;;;;;10367997;28;20033;-82
2022/04/12 16:40:24;;;;;;;23.58;8.50;;;12.30;62.20;;;;;;10367331;28;20057;-81
2022/04/12 16:45:25;;;;;;;24.77;12.15;;;12.20;62.60;;;;;;10336312;28;20133;-82
2022/04/12 16:50:28;;;;;;;21.92;11.38;;;12.10;63.30;;;;;;10369513;28;20109;-81
2022/04/12 16:55:29;;;;;;;21.75;12.10;;;11.90;64.90;;;;;;10369013;28;20176;-80
2022/04/12 17:00:31;;;;;;;21.15;11.45;;;11.70;66.50;;;;;;10367860;28;20745;-81
2022/04/12 17:05:32;;;;;;;21.33;11.27;;;11.40;67.40;;;;;;10367376;28;20029;-81
2022/04/12 17:10:33;;;;;;;27.02;14.25;;;11.10;68.40;;;;;;10367910;28;20033;-81
2022/04/12 17:15:34;;;;;;;29.10;13.33;;;10.80;70.10;;;;;;10368941;28;20030;-82
2022/04/12 17:20:34;;;;;;;23.80;11.90;;;10.50;71.70;;;;;;10361888;28;20034;-81
2022/04/12 17:25:35;;;;;;;22.37;11.87;;;10.10;73.90;;;;;;10367820;28;20052;-81
2022/04/12 17:30:36;;;;;;;35.30;17.47;;;9.80;74.10;;;;;;10367622;28;20061;-81
2022/04/12 17:35:39;;;;;;;29.90;14.07;;;9.50;74.60;;;;;;10345934;28;20025;-80
2022/04/12 17:40:40;;;;;;;18.27;9.37;;;9.30;73.80;;;;;;10366681;28;20045;-82
2022/04/12 17:45:41;;;;;;;13.60;7.77;;;9.40;74.00;;;;;;10366102;28;20536;-82
2022/04/12 17:50:41;;;;;;;13.57;7.60;;;9.40;74.40;;;;;;10366900;28;20117;-80
2022/04/12 17:55:42;;;;;;;21.17;10.27;;;9.50;74.20;;;;;;10365727;28;20500;-81
2022/04/12 18:00:43;;;;;;;21.87;10.53;;;9.40;75.60;;;;;;10365750;28;20505;-80
2022/04/12 18:05:44;;;;;;;19.43;9.67;;;9.10;77.00;;;;;;10366546;28;20576;-81
2022/04/12 18:10:44;;;;;;;18.10;9.10;;;8.80;77.00;;;;;;10367337;28;20022;-81
2022/04/12 18:15:45;;;;;;;15.83;8.43;;;8.70;77.60;;;;;;10336807;28;20117;-80
2022/04/12 18:20:46;;;;;;;17.13;8.03;;;8.60;78.50;;;;;;10338088;28;20026;-80
2022/04/12 18:25:46;;;;;;;17.40;8.40;;;8.60;79.00;;;;;;10365499;28;20046;-80
2022/04/12 18:30:48;;;;;;;19.50;9.60;;;8.70;78.00;;;;;;10358831;28;20038;-79
2022/04/12 18:35:48;;;;;;;23.67;11.77;;;8.60;79.10;;;;;;10363303;28;20033;-80
2022/04/12 18:40:49;;;;;;;34.60;17.03;;;8.60;78.90;;;;;;10361708;28;20041;-80
2022/04/12 18:45:50;;;;;;;47.47;23.30;;;8.30;79.60;;;;;;10365296;28;20154;-81
2022/04/12 18:50:52;;;;;;;54.07;24.60;;;8.10;80.60;;;;;;10371155;28;20048;-81
2022/04/12 18:55:53;;;;;;;51.73;25.07;;;7.80;82.60;;;;;;10373895;28;20025;-80
2022/04/12 19:00:53;;;;;;;53.10;23.70;;;7.60;83.70;;;;;;10374477;28;20026;-80
2022/04/12 19:05:54;;;;;;;39.87;19.93;;;7.50;83.90;;;;;;10373276;28;20065;-80
2022/04/12 19:10:56;;;;;;;43.80;19.07;;;7.50;83.90;;;;;;10373297;28;20030;-80
2022/04/12 19:15:58;;;;;;;47.57;21.43;;;7.50;83.30;;;;;;10372913;28;20153;-80
2022/04/12 19:20:58;;;;;;;45.07;21.07;;;7.60;82.90;;;;;;10373474;28;20026;-80
2022/04/12 19:25:59;;;;;;;54.47;24.43;;;7.60;82.30;;;;;;10371720;28;20060;-81
2022/04/12 19:31:00;;;;;;;62.67;28.47;;;7.60;82.50;;;;;;10365823;28;20361;-79
2022/04/12 19:36:02;;;;;;;74.73;35.43;;;7.50;83.20;;;;;;10362310;28;20113;-80
2022/04/12 19:41:03;;;;;;;61.73;31.43;;;7.30;84.00;;;;;;10370627;28;20927;-81
2022/04/12 19:46:04;;;;;;;52.37;24.90;;;7.20;84.20;;;;;;10366607;28;20045;-79
2022/04/12 19:51:04;;;;;;;44.00;20.00;;;7.00;85.10;;;;;;10349717;28;20037;-81
2022/04/12 19:56:05;;;;;;;49.67;23.27;;;6.90;84.90;;;;;;10352788;28;20467;-80
2022/04/12 20:01:08;;;;;;;46.00;23.37;;;6.80;84.90;;;;;;10350276;28;20065;-79
2022/04/12 20:06:11;;;;;;;44.43;20.27;;;6.80;85.20;;;;;;10351260;28;20084;-80
2022/04/12 20:11:12;;;;;;;45.63;21.57;;;6.80;86.00;;;;;;10355570;28;20029;-80
2022/04/12 20:16:13;;;;;;;44.93;21.13;;;6.70;86.00;;;;;;10350695;28;20389;-80
2022/04/12 20:21:14;;;;;;;44.97;21.10;;;6.50;86.10;;;;;;10351486;28;20040;-80
2022/04/12 20:26:15;;;;;;;50.47;23.13;;;6.30;86.60;;;;;;10349477;28;20053;-79
2022/04/12 20:31:17;;;;;;;52.10;23.93;;;6.20;87.40;;;;;;10348761;28;20038;-80
2022/04/12 20:36:19;;;;;;;52.83;25.93;;;6.00;88.70;;;;;;10346915;28;20113;-80
2022/04/12 20:41:19;;;;;;;46.10;22.40;;;5.80;89.10;;;;;;10349777;28;20040;-80
2022/04/12 20:46:20;;;;;;;43.33;22.47;;;5.80;90.10;;;;;;10353380;28;20539;-81
2022/04/12 20:51:20;;;;;;;41.73;21.37;;;5.70;89.90;;;;;;10342635;28;20034;-80
2022/04/12 20:56:21;;;;;;;51.73;23.13;;;5.60;90.60;;;;;;10368628;28;20229;-80
2022/04/12 21:01:22;;;;;;;49.17;20.90;;;5.50;90.70;;;;;;10369521;28;20107;-80
2022/04/12 21:06:23;;;;;;;52.77;23.30;;;5.60;90.60;;;;;;10366459;28;20046;-80
2022/04/12 21:11:24;;;;;;;41.53;21.40;;;5.60;90.90;;;;;;10353227;28;20034;-79
2022/04/12 21:16:24;;;;;;;49.73;23.83;;;5.60;90.80;;;;;;10362202;28;20065;-79
2022/04/12 21:21:25;;;;;;;42.90;20.57;;;5.50;91.00;;;;;;10369028;28;20362;-80
2022/04/12 21:26:25;;;;;;;41.13;21.27;;;5.30;91.10;;;;;;10367952;28;20053;-80
2022/04/12 21:31:26;;;;;;;41.17;20.97;;;5.20;91.50;;;;;;10367805;28;20041;-81
2022/04/12 21:36:27;;;;;;;36.97;20.47;;;5.20;91.60;;;;;;10368023;28;20026;-79
2022/04/12 21:41:28;;;;;;;34.93;18.63;;;5.10;92.10;;;;;;10367807;28;20042;-80
2022/04/12 21:46:28;;;;;;;41.50;19.43;;;5.10;92.10;;;;;;10367702;28;20494;-80
2022/04/12 21:51:29;;;;;;;41.17;20.77;;;5.10;92.40;;;;;;10339587;28;20470;-80
2022/04/12 21:56:31;;;;;;;38.17;19.70;;;5.20;92.30;;;;;;10367315;28;20041;-80
2022/04/12 22:01:32;;;;;;;38.37;19.43;;;5.10;92.40;;;;;;10366994;28;20022;-80
2022/04/12 22:06:33;;;;;;;40.43;19.53;;;5.10;92.70;;;;;;10366874;28;20587;-80
2022/04/12 22:11:34;;;;;;;38.30;19.77;;;5.10;92.60;;;;;;10367785;28;20036;-81
2022/04/12 22:16:34;;;;;;;40.23;19.83;;;5.10;92.80;;;;;;10366416;28;20513;-80
2022/04/12 22:21:35;;;;;;;51.37;22.87;;;5.10;92.70;;;;;;10366575;28;20111;-81
2022/04/12 22:26:36;;;;;;;46.80;22.77;;;5.10;92.90;;;;;;10374188;28;20064;-80
2022/04/12 22:31:37;;;;;;;54.80;25.23;;;4.90;93.20;;;;;;10374580;28;20071;-80
2022/04/12 22:36:37;;;;;;;43.00;22.10;;;4.90;93.30;;;;;;10373853;28;20506;-80
2022/04/12 22:41:38;;;;;;;49.53;22.77;;;4.80;93.60;;;;;;10375001;28;20137;-79
2022/04/12 22:46:39;;;;;;;48.00;24.43;;;4.80;93.90;;;;;;10373987;28;20076;-79
2022/04/12 22:51:39;;;;;;;45.40;23.47;;;4.60;94.20;;;;;;10374541;28;20487;-81
2022/04/12 22:56:40;;;;;;;50.03;26.57;;;4.50;94.40;;;;;;10373785;28;20034;-80
2022/04/12 23:01:41;;;;;;;55.00;25.47;;;4.40;95.10;;;;;;10373532;28;20389;-80
2022/04/12 23:06:41;;;;;;;55.70;26.83;;;4.30;95.90;;;;;;10373087;28;20045;-80
2022/04/12 23:11:42;;;;;;;52.97;23.90;;;4.10;96.70;;;;;;10373893;28;20100;-80
2022/04/12 23:16:43;;;;;;;51.83;24.07;;;4.10;97.30;;;;;;10373167;28;20037;-80
2022/04/12 23:21:43;;;;;;;52.73;26.17;;;4.00;97.50;;;;;;10373098;28;20026;-79
2022/04/12 23:26:44;;;;;;;46.00;24.00;;;4.00;97.90;;;;;;10372298;28;20050;-79
2022/04/12 23:31:44;;;;;;;48.63;25.93;;;4.00;98.20;;;;;;10357729;28;20034;-80
2022/04/12 23:36:47;;;;;;;53.77;26.07;;;3.80;98.80;;;;;;10357758;28;20049;-79
2022/04/12 23:41:49;;;;;;;46.67;24.33;;;3.80;99.70;;;;;;10372520;28;20034;-80
2022/04/12 23:46:50;;;;;;;47.47;24.63;;;3.80;99.80;;;;;;10371093;28;20500;-80
2022/04/12 23:51:53;;;;;;;47.70;24.37;;;3.70;99.90;;;;;;10372600;28;20486;-80
2022/04/12 23:56:53;;;;;;;53.23;25.80;;;3.70;99.90;;;;;;10370979;28;20037;-80
